Time;durP1;ratioP1;P1;durP2;ratioP2;P2;SDS_P1;SDS_P2;PMS_P1;PMS_P2;Temp;Humidity;BMP_temperature;BMP_pressure;BME280_temperature;BME280_humidity;BME280_pressure;Samples;Min_cycle;Max_cycle;Signal;HPM_P1;HPM_P2
2023/07/17 00:01:37;;;;;;;0.20;0.00;;;;;;;24.53;100.00;101483.53;10446931;28;20049;-82
2023/07/17 00:06:38;;;;;;;0.00;0.00;;;;;;;24.88;100.00;101481.00;10455067;28;20051;-82
2023/07/17 00:11:40;;;;;;;0.10;0.10;;;;;;;24.18;100.00;101479.06;10455119;28;20056;-82
2023/07/17 00:16:42;;;;;;;0.73;0.50;;;;;;;24.29;100.00;101477.06;10459815;28;20048;-82
2023/07/17 00:21:44;;;;;;;0.43;0.28;;;;;;;24.46;100.00;101473.19;10438989;28;20397;-82
2023/07/17 00:26:45;;;;;;;0.00;0.00;;;;;;;25.20;100.00;101484.59;10438945;28;20045;-82
2023/07/17 00:31:47;;;;;;;0.25;0.20;;;;;;;25.18;100.00;101499.56;10458113;28;20052;-82
2023/07/17 00:36:49;;;;;;;0.57;0.28;;;;;;;24.82;100.00;101507.50;10455723;28;20048;-83
2023/07/17 00:41:51;;;;;;;0.10;0.10;;;;;;;24.87;100.00;101505.59;10441938;28;20123;-82
2023/07/17 00:46:54;;;;;;;0.10;0.10;;;;;;;24.49;100.00;101500.31;10460482;28;20047;-82
2023/07/17 00:51:57;;;;;;;0.10;0.10;;;;;;;24.06;100.00;101506.50;10438478;28;20404;-82
2023/07/17 00:57:03;;;;;;;0.25;0.25;;;;;;;23.64;100.00;101515.22;10453559;28;20045;-83
2023/07/17 01:02:05;;;;;;;0.35;0.20;;;;;;;22.99;100.00;101516.31;10458174;28;20037;-83
2023/07/17 01:07:07;;;;;;;0.17;0.17;;;;;;;23.25;100.00;101517.69;10433001;28;20068;-83
2023/07/17 01:12:09;;;;;;;1.27;0.50;;;;;;;23.32;100.00;101513.16;10457042;28;20049;-82
2023/07/17 01:17:11;;;;;;;3.90;1.15;;;;;;;23.27;100.00;101513.28;10435356;28;20041;-83
2023/07/17 01:22:23;;;;;;;0.03;0.03;;;;;;;23.24;100.00;101523.81;10456760;28;20477;-82
2023/07/17 01:27:25;;;;;;;0.60;0.40;;;;;;;22.78;100.00;101528.91;10435238;28;20491;-82
2023/07/17 01:32:26;;;;;;;0.20;0.10;;;;;;;22.57;100.00;101526.59;10458324;28;20131;-83
2023/07/17 01:37:28;;;;;;;0.00;0.00;;;;;;;22.90;100.00;101521.72;10435035;28;20061;-82
2023/07/17 01:42:30;;;;;;;0.30;0.03;;;;;;;22.87;100.00;101542.78;10433743;28;20041;-83
2023/07/17 01:47:31;;;;;;;0.60;0.35;;;;;;;22.53;100.00;101540.63;10432992;28;20052;-82
2023/07/17 01:52:33;;;;;;;0.10;0.10;;;;;;;22.64;100.00;101541.38;10461166;28;20049;-83
2023/07/17 01:57:35;;;;;;;0.00;0.00;;;;;;;22.53;100.00;101543.25;10435542;28;20053;-82
2023/07/17 02:02:36;;;;;;;1.48;0.70;;;;;;;22.56;100.00;101538.88;10435345;28;20102;-82
2023/07/17 02:07:40;;;;;;;2.35;0.10;;;;;;;22.78;100.00;101539.41;10444672;28;20052;-82
2023/07/17 02:12:42;;;;;;;1.08;0.47;;;;;;;21.55;100.00;101537.38;10420402;28;20044;-83
2023/07/17 02:17:43;;;;;;;5.68;0.70;;;;;;;22.12;100.00;101533.28;10434313;28;20508;-82
2023/07/17 02:22:46;;;;;;;0.00;0.00;;;;;;;22.09;100.00;101532.44;10452040;28;20045;-82
2023/07/17 02:27:48;;;;;;;0.10;0.10;;;;;;;22.02;100.00;101531.63;10433202;28;20053;-82
2023/07/17 02:32:50;;;;;;;0.10;0.10;;;;;;;22.27;100.00;101537.44;10471313;28;20124;-82
2023/07/17 02:37:52;;;;;;;0.80;0.32;;;;;;;21.70;100.00;101549.47;10441847;28;20055;-83
2023/07/17 02:42:54;;;;;;;0.70;0.15;;;;;;;22.09;100.00;101541.16;10448259;28;20483;-83
2023/07/17 02:47:55;;;;;;;0.10;0.10;;;;;;;21.71;100.00;101556.47;10454452;28;20049;-82
2023/07/17 02:52:57;;;;;;;0.25;0.25;;;;;;;22.14;100.00;101549.88;10456883;28;20049;-83
2023/07/17 02:57:59;;;;;;;0.30;0.20;;;;;;;22.24;100.00;101552.38;10455678;28;20554;-82
2023/07/17 03:03:06;;;;;;;0.30;0.20;;;;;;;21.62;100.00;101553.06;10453110;28;20045;-83
2023/07/17 03:08:07;;;;;;;1.20;0.22;;;;;;;22.15;100.00;101559.47;10464134;28;20434;-83
2023/07/17 03:13:09;;;;;;;1.33;0.52;;;;;;;21.91;100.00;101576.34;10456901;28;20484;-82
2023/07/17 03:18:11;;;;;;;1.48;0.25;;;;;;;21.75;100.00;101574.78;10439710;28;20053;-82
2023/07/17 03:23:13;;;;;;;0.10;0.05;;;;;;;21.06;100.00;101575.34;10442370;28;20693;-83
2023/07/17 03:28:14;;;;;;;0.22;0.20;;;;;;;21.51;100.00;101572.34;10440067;28;20045;-82
2023/07/17 03:33:16;;;;;;;0.00;0.00;;;;;;;21.93;100.00;101568.50;10458721;28;20049;-82
2023/07/17 03:38:20;;;;;;;0.35;0.35;;;;;;;21.56;100.00;101581.03;10457347;28;20487;-82
2023/07/17 03:43:22;;;;;;;0.20;0.10;;;;;;;21.31;100.00;101576.91;10438672;28;20437;-82
2023/07/17 03:48:24;;;;;;;0.30;0.25;;;;;;;21.66;100.00;101578.38;10440489;28;20048;-83
2023/07/17 03:53:25;;;;;;;0.00;0.00;;;;;;;21.74;100.00;101581.78;10455317;28;20041;-83
2023/07/17 03:58:29;;;;;;;0.63;0.20;;;;;;;21.78;100.00;101591.34;10422483;28;20106;-82
2023/07/17 04:03:31;;;;;;;0.05;0.03;;;;;;;21.66;100.00;101591.47;10456969;28;20043;-83
2023/07/17 04:08:32;;;;;;;0.22;0.17;;;;;;;21.46;100.00;101592.50;10437960;28;20603;-83
2023/07/17 04:13:34;;;;;;;0.20;0.10;;;;;;;21.52;100.00;101591.59;10446968;28;20045;-83
2023/07/17 04:18:36;;;;;;;0.30;0.25;;;;;;;21.80;100.00;101594.81;10437881;28;20135;-83
2023/07/17 04:23:38;;;;;;;0.10;0.10;;;;;;;21.62;100.00;101606.38;10453777;28;20087;-83
2023/07/17 04:28:43;;;;;;;0.00;0.00;;;;;;;21.59;100.00;101611.66;10435340;28;20407;-83
2023/07/17 04:33:45;;;;;;;0.20;0.13;;;;;;;21.77;100.00;101615.84;10456042;28;20049;-83
2023/07/17 04:38:47;;;;;;;0.10;0.00;;;;;;;21.66;100.00;101617.69;10455127;28;20040;-83
2023/07/17 04:43:49;;;;;;;0.13;0.10;;;;;;;21.54;100.00;101629.13;10451381;28;20094;-83
2023/07/17 04:48:51;;;;;;;0.00;0.00;;;;;;;21.85;100.00;101621.91;10473826;28;20044;-83
2023/07/17 04:53:55;;;;;;;0.30;0.10;;;;;;;21.75;100.00;101624.59;10435099;28;20545;-83
2023/07/17 04:59:00;;;;;;;0.05;0.05;;;;;;;22.37;100.00;101640.59;10452238;28;20055;-83
2023/07/17 05:04:03;;;;;;;3.38;0.30;;;;;;;22.01;100.00;101634.84;10447124;28;20561;-83
2023/07/17 05:09:06;;;;;;;0.13;0.13;;;;;;;22.10;100.00;101645.25;10444083;28;20156;-83
2023/07/17 05:14:10;;;;;;;0.40;0.15;;;;;;;21.92;100.00;101643.69;10434154;28;20048;-83
2023/07/17 05:19:12;;;;;;;0.45;0.22;;;;;;;22.02;100.00;101647.97;10436949;28;20053;-83
2023/07/17 05:24:13;;;;;;;1.20;1.10;;;;;;;22.58;100.00;101646.50;10452880;28;20378;-83
2023/07/17 05:29:16;;;;;;;0.65;0.28;;;;;;;22.04;100.00;101655.81;10423986;28;20098;-83
2023/07/17 05:34:18;;;;;;;1.35;0.65;;;;;;;21.55;100.00;101664.94;10452683;28;20053;-83
2023/07/17 05:39:20;;;;;;;0.00;0.00;;;;;;;22.47;100.00;101659.75;10423248;28;20052;-83
2023/07/17 05:44:23;;;;;;;0.00;0.00;;;;;;;22.59;100.00;101666.63;10433820;28;20052;-83
2023/07/17 05:49:25;;;;;;;0.60;0.45;;;;;;;22.68;100.00;101663.00;10434837;28;20049;-82
2023/07/17 05:54:27;;;;;;;0.95;0.38;;;;;;;22.59;100.00;101677.97;10434163;28;20037;-83
2023/07/17 05:59:28;;;;;;;0.28;0.28;;;;;;;22.71;100.00;101681.38;10437947;28;20067;-83
2023/07/17 06:04:30;;;;;;;0.20;0.10;;;;;;;22.47;100.00;101681.63;10438338;28;20115;-82
2023/07/17 06:09:34;;;;;;;2.92;0.57;;;;;;;22.90;100.00;101687.22;10452997;28;20083;-82
2023/07/17 06:14:36;;;;;;;0.03;0.00;;;;;;;23.44;100.00;101684.75;10450315;28;20059;-82
2023/07/17 06:19:38;;;;;;;0.57;0.30;;;;;;;22.89;100.00;101693.41;10468942;28;20049;-83
2023/07/17 06:24:40;;;;;;;0.40;0.38;;;;;;;22.81;100.00;101701.34;10427646;28;20056;-83
2023/07/17 06:29:41;;;;;;;0.30;0.20;;;;;;;23.25;100.00;101699.06;10449502;28;20045;-82
2023/07/17 06:34:43;;;;;;;0.88;0.45;;;;;;;22.63;100.00;101703.34;10427960;28;20131;-83
2023/07/17 06:39:45;;;;;;;3.67;0.43;;;;;;;23.40;100.00;101701.47;10431945;28;20053;-82
2023/07/17 06:44:47;;;;;;;0.00;0.00;;;;;;;23.54;100.00;101713.53;10469351;28;20044;-83
2023/07/17 06:49:48;;;;;;;0.15;0.15;;;;;;;23.63;100.00;101716.03;10457134;28;20053;-82
2023/07/17 06:54:50;;;;;;;5.20;1.27;;;;;;;23.69;100.00;101718.56;10446261;28;20049;-83
2023/07/17 07:00:06;;;;;;;1.08;0.63;;;;;;;23.60;100.00;101716.06;10446768;28;20056;-83
2023/07/17 07:05:08;;;;;;;0.25;0.20;;;;;;;25.32;100.00;101721.59;10456714;28;20045;-82
2023/07/17 07:10:10;;;;;;;0.15;0.13;;;;;;;24.20;100.00;101730.00;10450477;28;20049;-83
2023/07/17 07:15:12;;;;;;;0.50;0.43;;;;;;;23.90;100.00;101743.63;10449766;28;20048;-82
2023/07/17 07:20:14;;;;;;;0.52;0.38;;;;;;;25.38;100.00;101738.19;10442470;28;20060;-83
2023/07/17 07:25:16;;;;;;;0.55;0.40;;;;;;;26.05;100.00;101735.72;10437443;28;20529;-83
2023/07/17 07:30:18;;;;;;;5.30;1.05;;;;;;;26.68;100.00;101742.84;10419200;28;20052;-83
2023/07/17 07:35:20;;;;;;;5.15;0.55;;;;;;;24.84;100.00;101756.03;10456764;28;20119;-82
2023/07/17 07:40:22;;;;;;;0.43;0.38;;;;;;;25.95;100.00;101756.16;10423468;28;20096;-83
2023/07/17 07:45:24;;;;;;;1.00;0.57;;;;;;;26.20;100.00;101750.31;10455188;28;20137;-84
2023/07/17 07:50:26;;;;;;;1.23;0.60;;;;;;;25.74;100.00;101746.16;10431825;28;20060;-83
2023/07/17 07:55:28;;;;;;;1.33;0.40;;;;;;;25.67;100.00;101756.00;10457915;28;20553;-83
2023/07/17 08:00:30;;;;;;;0.98;0.40;;;;;;;25.62;100.00;101771.94;10453186;28;20044;-83
2023/07/17 08:05:32;;;;;;;0.82;0.50;;;;;;;25.18;100.00;101779.06;10447678;28;20041;-82
2023/07/17 08:10:37;;;;;;;0.25;0.20;;;;;;;27.02;100.00;101769.22;10435301;28;20480;-83
2023/07/17 08:15:39;;;;;;;0.30;0.20;;;;;;;26.01;100.00;101772.78;10466790;28;20440;-83
2023/07/17 08:20:41;;;;;;;0.98;0.30;;;;;;;24.49;100.00;101789.16;10446696;28;20540;-83
2023/07/17 08:25:43;;;;;;;0.05;0.05;;;;;;;25.88;100.00;101790.69;10430983;28;20045;-82
2023/07/17 08:30:44;;;;;;;1.25;0.30;;;;;;;26.58;100.00;101788.03;10443128;28;20069;-82
2023/07/17 08:35:46;;;;;;;1.30;0.52;;;;;;;26.62;100.00;101787.97;10438208;28;20415;-83
2023/07/17 08:40:51;;;;;;;0.20;0.20;;;;;;;25.78;100.00;101797.97;10456109;28;20059;-82
2023/07/17 08:45:54;;;;;;;1.55;0.35;;;;;;;25.72;100.00;101808.69;10447283;28;20137;-82
2023/07/17 08:50:58;;;;;;;0.30;0.30;;;;;;;26.86;100.00;101803.16;10419630;28;20107;-82
2023/07/17 08:56:00;;;;;;;5.45;0.85;;;;;;;27.16;100.00;101795.22;10474396;28;20450;-81
2023/07/17 09:01:02;;;;;;;2.00;0.70;;;;;;;26.65;100.00;101796.69;10451529;28;20033;-82
2023/07/17 09:06:04;;;;;;;1.52;0.50;;;;;;;26.71;100.00;101796.50;10441128;28;20041;-81
2023/07/17 09:11:08;;;;;;;2.25;0.28;;;;;;;27.71;100.00;101784.75;10443661;28;20087;-80
2023/07/17 09:16:22;;;;;;;0.28;0.20;;;;;;;27.31;100.00;101793.03;10454810;28;20538;-82
2023/07/17 09:21:27;;;;;;;0.35;0.35;;;;;;;27.43;100.00;101787.44;10443000;28;20052;-79
2023/07/17 09:26:29;;;;;;;0.50;0.32;;;;;;;28.50;100.00;101789.22;10448397;28;20140;-79
2023/07/17 09:31:32;;;;;;;0.10;0.10;;;;;;;28.55;100.00;101794.34;10447675;28;20492;-79
2023/07/17 09:36:34;;;;;;;0.20;0.20;;;;;;;27.65;100.00;101797.31;10459012;28;20114;-79
2023/07/17 09:41:36;;;;;;;0.50;0.40;;;;;;;27.47;100.00;101799.63;10414326;28;20131;-82
2023/07/17 09:46:39;;;;;;;0.30;0.20;;;;;;;27.33;100.00;101807.09;10448551;28;20037;-83
2023/07/17 09:51:41;;;;;;;0.00;0.00;;;;;;;27.34;100.00;101806.19;10450923;28;20045;-80
2023/07/17 09:56:44;;;;;;;0.10;0.10;;;;;;;28.31;100.00;101796.94;10450524;28;20049;-80
2023/07/17 10:01:50;;;;;;;0.93;0.85;;;;;;;28.31;100.00;101807.53;10431545;28;20407;-81
2023/07/17 10:06:54;;;;;;;0.15;0.15;;;;;;;29.07;100.00;101797.75;10442983;28;20051;-83
2023/07/17 10:11:56;;;;;;;0.32;0.28;;;;;;;27.53;100.00;101804.72;10435874;28;20116;-82
2023/07/17 10:16:58;;;;;;;0.30;0.30;;;;;;;27.81;100.00;101803.84;10445195;28;20076;-83
2023/07/17 10:22:00;;;;;;;1.13;0.60;;;;;;;26.92;100.00;101805.63;10431845;28;20041;-81
2023/07/17 10:27:02;;;;;;;0.20;0.20;;;;;;;26.80;100.00;101803.31;10462325;28;20057;-81
2023/07/17 10:32:09;;;;;;;0.20;0.10;;;;;;;26.65;100.00;101804.59;10465458;28;20075;-81
2023/07/17 10:37:18;;;;;;;0.10;0.10;;;;;;;27.97;99.43;101798.91;10448673;28;20045;-81
2023/07/17 10:42:19;;;;;;;0.15;0.15;;;;;;;26.87;99.23;101807.53;10450310;28;20139;-84
2023/07/17 10:47:21;;;;;;;0.20;0.13;;;;;;;28.49;100.00;101801.59;10431701;28;20053;-80
2023/07/17 10:52:23;;;;;;;0.20;0.20;;;;;;;28.68;95.68;101800.06;10473951;28;20036;-80
2023/07/17 10:57:25;;;;;;;0.10;0.10;;;;;;;28.13;100.00;101815.19;10463638;28;20073;-82
2023/07/17 11:02:26;;;;;;;0.28;0.28;;;;;;;27.79;100.00;101815.41;10444657;28;20045;-81
2023/07/17 11:07:33;;;;;;;0.15;0.15;;;;;;;27.24;99.10;101814.38;10454853;28;20415;-81
2023/07/17 11:12:35;;;;;;;1.15;0.45;;;;;;;26.43;100.00;101813.13;10447743;28;20399;-80
2023/07/17 11:17:37;;;;;;;1.65;0.30;;;;;;;27.40;100.00;101829.81;10445317;28;20061;-81
2023/07/17 11:22:41;;;;;;;0.47;0.32;;;;;;;29.54;97.44;101822.53;10453936;28;20053;-81
2023/07/17 11:27:43;;;;;;;2.05;0.52;;;;;;;28.24;97.62;101825.41;10456285;28;20538;-81
2023/07/17 11:32:59;;;;;;;0.13;0.08;;;;;;;26.19;95.74;101848.91;10422388;28;20052;-80
2023/07/17 11:38:04;;;;;;;0.25;0.25;;;;;;;25.32;100.00;101849.94;10454588;28;20139;-80
2023/07/17 11:43:06;;;;;;;0.00;0.00;;;;;;;24.94;100.00;101876.19;10447370;28;20403;-81
2023/07/17 11:48:07;;;;;;;0.10;0.08;;;;;;;27.04;99.95;101840.56;10432313;28;20053;-80
2023/07/17 11:53:13;;;;;;;0.00;0.00;;;;;;;25.85;100.00;101849.72;10447377;28;20566;-80
2023/07/17 11:58:24;;;;;;;0.00;0.00;;;;;;;26.65;100.00;101846.00;10447065;28;20080;-81
2023/07/17 12:03:26;;;;;;;0.08;0.00;;;;;;;25.63;100.00;101846.69;10443005;28;20033;-80
2023/07/17 12:08:28;;;;;;;0.00;0.00;;;;;;;27.62;100.00;101816.81;10447806;28;20075;-79
2023/07/17 12:13:29;;;;;;;0.17;0.00;;;;;;;27.33;100.00;101817.69;10450482;28;20039;-79
2023/07/17 12:18:31;;;;;;;0.20;0.20;;;;;;;28.39;100.00;101813.44;10442399;28;20487;-80
2023/07/17 12:23:34;;;;;;;1.23;0.13;;;;;;;28.81;100.00;101807.53;10437186;28;20041;-81
2023/07/17 12:28:35;;;;;;;0.10;0.05;;;;;;;29.57;98.31;101796.72;10456132;28;20478;-81
2023/07/17 12:33:38;;;;;;;0.00;0.00;;;;;;;28.77;97.78;101805.06;10450930;28;20095;-81
2023/07/17 12:38:39;;;;;;;0.10;0.10;;;;;;;28.61;99.28;101796.78;10468387;28;20045;-81
2023/07/17 12:43:44;;;;;;;0.00;0.00;;;;;;;27.08;98.35;101797.25;10468610;28;20132;-81
2023/07/17 12:48:47;;;;;;;0.00;0.00;;;;;;;28.61;99.00;101794.13;10449096;28;20049;-81
2023/07/17 12:53:49;;;;;;;0.00;0.00;;;;;;;29.16;100.00;101800.97;10451904;28;20141;-81
2023/07/17 12:58:51;;;;;;;0.60;0.10;;;;;;;28.49;100.00;101795.44;10441091;28;20168;-81
2023/07/17 13:03:53;;;;;;;0.30;0.10;;;;;;;27.09;100.00;101798.97;10428739;28;20404;-80
2023/07/17 13:08:55;;;;;;;0.05;0.05;;;;;;;26.59;100.00;101810.91;10438120;28;20049;-81
2023/07/17 13:13:56;;;;;;;0.30;0.20;;;;;;;26.79;100.00;101801.59;10423693;28;20072;-81
2023/07/17 13:18:58;;;;;;;0.40;0.20;;;;;;;26.42;100.00;101811.38;10434496;28;20075;-81
2023/07/17 13:24:00;;;;;;;0.35;0.22;;;;;;;26.93;100.00;101819.72;10430598;28;20052;-79
2023/07/17 13:29:06;;;;;;;0.20;0.20;;;;;;;26.73;100.00;101818.44;10444792;28;20072;-81
2023/07/17 13:34:08;;;;;;;0.10;0.10;;;;;;;26.87;100.00;101799.59;10448770;28;20059;-79
2023/07/17 13:39:10;;;;;;;0.00;0.00;;;;;;;26.31;100.00;101807.28;10463513;28;20048;-78
2023/07/17 13:44:13;;;;;;;0.13;0.10;;;;;;;25.98;100.00;101803.63;10428392;28;20246;-78
2023/07/17 13:49:16;;;;;;;1.30;0.20;;;;;;;26.45;100.00;101834.19;10436038;28;20041;-79
2023/07/17 13:54:18;;;;;;;0.10;0.10;;;;;;;24.97;100.00;101855.06;10451855;28;20650;-80
2023/07/17 13:59:22;;;;;;;2.70;0.68;;;;;;;23.66;100.00;101907.97;10434573;28;20053;-80
2023/07/17 14:04:23;;;;;;;0.40;0.20;;;;;;;20.45;100.00;101940.31;10429784;28;20079;-84
2023/07/17 14:09:25;;;;;;;0.40;0.03;;;;;;;19.91;100.00;101932.34;10449584;28;20049;-86
2023/07/17 14:14:29;;;;;;;0.10;0.10;;;;;;;20.24;100.00;101928.94;10432430;28;20546;-88
2023/07/17 14:19:30;;;;;;;0.10;0.00;;;;;;;21.15;100.00;101928.13;10449606;28;20053;-88
2023/07/17 14:24:32;;;;;;;0.20;0.20;;;;;;;21.03;100.00;101915.06;10450680;28;20067;-89
2023/07/17 14:29:34;;;;;;;0.30;0.30;;;;;;;21.78;100.00;101927.06;10440451;28;20055;-88
2023/07/17 14:34:40;;;;;;;0.00;0.00;;;;;;;23.37;100.00;101927.63;10456869;28;20454;-88
2023/07/17 14:39:41;;;;;;;0.00;0.00;;;;;;;24.08;100.00;101924.13;10472218;28;20057;-88
2023/07/17 14:44:43;;;;;;;0.20;0.10;;;;;;;23.93;100.00;101926.97;10441049;28;20053;-87
2023/07/17 14:49:45;;;;;;;0.25;0.25;;;;;;;24.45;100.00;101913.94;10467212;28;20079;-89
2023/07/17 14:54:46;;;;;;;0.88;0.55;;;;;;;24.68;100.00;101914.44;10423993;28;20098;-88
2023/07/17 14:59:48;;;;;;;0.52;0.35;;;;;;;24.47;100.00;101922.66;10457269;28;20080;-87
2023/07/17 15:04:50;;;;;;;0.20;0.20;;;;;;;23.29;100.00;101913.69;10423056;28;20187;-87
2023/07/17 15:09:52;;;;;;;0.70;0.30;;;;;;;23.95;100.00;101919.91;10457383;28;20161;-86
2023/07/17 15:14:54;;;;;;;0.10;0.10;;;;;;;23.92;100.00;101909.41;10456375;28;20048;-84
2023/07/17 15:19:55;;;;;;;0.70;0.32;;;;;;;23.44;100.00;101908.25;10455862;28;20055;-84
2023/07/17 15:24:57;;;;;;;4.47;0.43;;;;;;;24.03;100.00;101907.50;10435088;28;20044;-85
2023/07/17 15:30:24;;;;;;;0.13;0.13;;;;;;;24.12;100.00;101905.66;10456725;28;20555;-85
2023/07/17 15:35:26;;;;;;;0.20;0.20;;;;;;;23.86;100.00;101912.13;10440154;28;20140;-85
2023/07/17 15:40:29;;;;;;;0.40;0.40;;;;;;;24.39;100.00;101905.19;10421506;28;20044;-85
2023/07/17 15:45:31;;;;;;;0.38;0.30;;;;;;;24.44;100.00;101915.66;10454881;28;20155;-84
2023/07/17 15:50:32;;;;;;;0.20;0.20;;;;;;;24.92;100.00;101909.59;10421964;28;20106;-83
2023/07/17 15:55:34;;;;;;;0.00;0.00;;;;;;;25.14;100.00;101914.47;10457230;28;20076;-86
2023/07/17 16:00:36;;;;;;;0.70;0.20;;;;;;;25.68;100.00;101908.16;10454463;28;20797;-83
2023/07/17 16:05:38;;;;;;;0.38;0.15;;;;;;;25.13;100.00;101902.22;10436698;28;20049;-85
2023/07/17 16:10:47;;;;;;;0.00;0.00;;;;;;;24.76;100.00;101908.16;10435897;28;20157;-88
2023/07/17 16:15:48;;;;;;;0.32;0.30;;;;;;;24.68;100.00;101911.81;10450423;28;20311;-87
2023/07/17 16:20:50;;;;;;;0.20;0.20;;;;;;;24.61;100.00;101925.06;10437158;28;20503;-86
2023/07/17 16:25:52;;;;;;;0.88;0.30;;;;;;;24.96;100.00;101921.84;10418751;28;20052;-85
2023/07/17 16:30:54;;;;;;;0.35;0.13;;;;;;;25.20;100.00;101924.94;10434915;28;20143;-84
2023/07/17 16:35:56;;;;;;;0.10;0.10;;;;;;;25.32;100.00;101934.34;10468967;28;20041;-82
2023/07/17 16:40:57;;;;;;;0.43;0.30;;;;;;;26.21;100.00;101921.06;10468618;28;20037;-84
2023/07/17 16:45:59;;;;;;;0.75;0.40;;;;;;;25.97;100.00;101902.22;10462563;28;20055;-83
2023/07/17 16:51:01;;;;;;;0.30;0.30;;;;;;;26.33;100.00;101895.25;10435256;28;20045;-83
2023/07/17 16:56:03;;;;;;;0.10;0.10;;;;;;;25.80;100.00;101904.38;10420667;28;20484;-85
2023/07/17 17:01:06;;;;;;;0.10;0.10;;;;;;;26.28;100.00;101908.59;10469004;28;20073;-85
2023/07/17 17:06:08;;;;;;;0.47;0.30;;;;;;;25.96;100.00;101910.19;10469919;28;20378;-83
2023/07/17 17:11:10;;;;;;;0.00;0.00;;;;;;;25.65;100.00;101906.44;10424096;28;20052;-85
2023/07/17 17:16:12;;;;;;;0.28;0.25;;;;;;;26.21;100.00;101921.06;10462323;28;20064;-82
2023/07/17 17:21:14;;;;;;;0.25;0.25;;;;;;;26.02;100.00;101925.03;10449537;28;20048;-87
2023/07/17 17:26:16;;;;;;;0.00;0.00;;;;;;;26.24;100.00;101920.13;10439758;28;20041;-91
2023/07/17 17:31:19;;;;;;;0.10;0.10;;;;;;;26.48;100.00;101918.66;10414163;28;20041;-87
2023/07/17 17:36:22;;;;;;;0.03;0.03;;;;;;;26.59;100.00;101932.47;10449115;28;20412;-85
2023/07/17 17:41:24;;;;;;;0.00;0.00;;;;;;;26.77;100.00;101940.84;10430510;28;20076;-87
2023/07/17 17:46:27;;;;;;;0.03;0.03;;;;;;;26.21;100.00;101939.56;10447225;28;20053;-89
2023/07/17 17:51:29;;;;;;;0.10;0.10;;;;;;;26.67;100.00;101940.19;10441130;28;20060;-90
2023/07/17 17:56:31;;;;;;;4.18;0.75;;;;;;;26.20;100.00;101956.31;10452835;28;20055;-87
2023/07/17 18:01:33;;;;;;;0.00;0.00;;;;;;;26.31;100.00;101952.56;10451543;28;20484;-86
2023/07/17 18:06:35;;;;;;;0.08;0.08;;;;;;;25.86;100.00;101956.16;10420829;28;20073;-83
2023/07/17 18:11:37;;;;;;;0.00;0.00;;;;;;;25.84;100.00;101958.84;10442635;28;20056;-83
2023/07/17 18:16:42;;;;;;;0.00;0.00;;;;;;;25.92;100.00;101951.63;10423137;28;20056;-84
2023/07/17 18:21:49;;;;;;;0.00;0.00;;;;;;;25.83;100.00;101957.09;10445123;28;20820;-84
2023/07/17 18:26:50;;;;;;;0.50;0.08;;;;;;;25.50;100.00;101959.56;10433901;28;20057;-83
2023/07/17 18:31:52;;;;;;;0.55;0.00;;;;;;;25.83;100.00;101965.00;10443108;28;20046;-84
2023/07/17 18:36:54;;;;;;;0.10;0.10;;;;;;;25.23;100.00;101967.03;10440258;28;20710;-84
2023/07/17 18:41:59;;;;;;;0.05;0.00;;;;;;;25.29;100.00;101977.47;10457368;28;20068;-85
2023/07/17 18:47:01;;;;;;;1.55;1.00;;;;;;;25.33;100.00;101973.91;10433391;28;20103;-82
2023/07/17 18:52:03;;;;;;;0.00;0.00;;;;;;;25.81;100.00;101980.88;10451314;28;20056;-86
2023/07/17 18:57:04;;;;;;;0.10;0.10;;;;;;;25.28;100.00;101974.88;10462517;28;20096;-85
2023/07/17 19:02:06;;;;;;;0.00;0.00;;;;;;;24.71;100.00;101982.88;10451010;28;20604;-85
2023/07/17 19:07:08;;;;;;;24.38;0.47;;;;;;;25.50;100.00;101981.50;10429237;28;20081;-84
2023/07/17 19:12:10;;;;;;;0.43;0.43;;;;;;;25.38;100.00;101984.41;10436102;28;20033;-85
2023/07/17 19:17:11;;;;;;;2.03;0.35;;;;;;;25.06;100.00;101984.97;10438430;28;20057;-84
2023/07/17 19:29:07;;;;;;;0.00;0.00;;;;;;;24.79;100.00;102005.59;10492156;22;20048;-85
2023/07/17 19:34:09;;;;;;;0.00;0.00;;;;;;;24.06;100.00;102009.25;10471601;28;20052;-84
2023/07/17 19:46:05;;;;;;;0.20;0.10;;;;;;;24.06;100.00;102028.56;10451130;22;20049;-84
2023/07/17 19:51:06;;;;;;;0.10;0.00;;;;;;;24.48;100.00;102029.75;10414484;28;20052;-84
2023/07/17 19:56:09;;;;;;;1.02;0.30;;;;;;;24.12;100.00;102037.28;10410087;28;20340;-84
2023/07/17 20:01:11;;;;;;;0.00;0.00;;;;;;;24.01;100.00;102051.47;10424580;28;20045;-85
2023/07/17 20:06:13;;;;;;;0.15;0.00;;;;;;;24.08;100.00;102058.38;10400416;28;20047;-83
2023/07/17 20:11:15;;;;;;;0.10;0.10;;;;;;;23.69;100.00;102065.81;10433553;28;20037;-84
2023/07/17 20:16:17;;;;;;;0.00;0.00;;;;;;;23.28;100.00;102074.94;10406332;28;20047;-83
2023/07/17 20:21:19;;;;;;;0.00;0.00;;;;;;;23.40;100.00;102074.88;10419657;28;20147;-84
2023/07/17 20:26:21;;;;;;;0.03;0.03;;;;;;;23.55;100.00;102075.59;10410662;28;20488;-84
2023/07/17 20:31:23;;;;;;;0.00;0.00;;;;;;;23.45;100.00;102080.09;10430654;28;20047;-84
2023/07/17 20:36:25;;;;;;;0.00;0.00;;;;;;;23.10;100.00;102091.72;10434639;28;20135;-84
2023/07/17 20:41:26;;;;;;;0.20;0.10;;;;;;;22.81;100.00;102101.56;10435214;28;20387;-84
2023/07/17 20:46:28;;;;;;;1.60;0.05;;;;;;;23.01;100.00;102103.19;10410622;28;20061;-84
2023/07/17 20:51:31;;;;;;;0.80;0.80;;;;;;;22.67;100.00;102108.66;10407959;28;20131;-84
2023/07/17 20:56:33;;;;;;;0.00;0.00;;;;;;;22.63;100.00;102106.91;10410134;28;20080;-84
2023/07/17 21:01:35;;;;;;;0.00;0.00;;;;;;;22.44;100.00;102107.03;10416612;28;20059;-85
2023/07/17 21:06:37;;;;;;;0.10;0.00;;;;;;;22.45;100.00;102106.13;10421322;28;20053;-84
2023/07/17 21:11:39;;;;;;;0.10;0.00;;;;;;;22.46;100.00;102105.25;10398342;28;20049;-83
2023/07/17 21:16:41;;;;;;;0.10;0.10;;;;;;;22.41;100.00;102111.41;10402603;28;20073;-84
2023/07/17 21:21:43;;;;;;;0.00;0.00;;;;;;;22.52;100.00;102119.25;10405877;28;20511;-84
2023/07/17 21:26:45;;;;;;;0.00;0.00;;;;;;;22.71;100.00;102114.78;10396551;28;20041;-84
2023/07/17 21:31:47;;;;;;;0.00;0.00;;;;;;;22.23;100.00;102117.59;10432146;28;20045;-84
2023/07/17 21:36:48;;;;;;;0.00;0.00;;;;;;;22.02;100.00;102114.13;10423558;28;20053;-84
2023/07/17 21:41:50;;;;;;;0.00;0.00;;;;;;;22.21;100.00;102108.84;10420167;28;20064;-83
2023/07/17 21:46:52;;;;;;;0.00;0.00;;;;;;;22.37;100.00;102109.63;10399559;28;20049;-83
2023/07/17 21:51:53;;;;;;;0.00;0.00;;;;;;;22.12;100.00;102123.72;10426479;28;20504;-84
2023/07/17 21:56:55;;;;;;;0.10;0.00;;;;;;;21.66;100.00;102121.19;10400568;28;20385;-85
2023/07/17 22:01:57;;;;;;;0.00;0.00;;;;;;;22.04;100.00;102122.88;10443342;28;20053;-84
2023/07/17 22:06:58;;;;;;;0.13;0.00;;;;;;;21.84;100.00;102121.19;10435172;28;20036;-84
2023/07/17 22:12:00;;;;;;;0.00;0.00;;;;;;;21.81;100.00;102123.78;10422026;28;20049;-84
2023/07/17 22:17:02;;;;;;;0.10;0.10;;;;;;;21.99;100.00;102120.25;10409501;28;20047;-84
2023/07/17 22:22:05;;;;;;;0.00;0.00;;;;;;;21.55;100.00;102129.03;10419493;28;20527;-84
2023/07/17 22:27:06;;;;;;;0.03;0.03;;;;;;;21.72;100.00;102129.03;10405048;28;20477;-84
2023/07/17 22:32:08;;;;;;;0.00;0.00;;;;;;;21.29;100.00;102134.25;10403475;28;20143;-84
2023/07/17 22:37:10;;;;;;;0.00;0.00;;;;;;;21.18;100.00;102129.00;10424658;28;20049;-84
2023/07/17 22:42:11;;;;;;;0.00;0.00;;;;;;;21.71;100.00;102119.41;10410751;28;20419;-84
2023/07/17 22:47:13;;;;;;;0.43;0.22;;;;;;;21.16;100.00;102125.50;10383807;28;20065;-84
2023/07/17 22:52:20;;;;;;;0.00;0.00;;;;;;;21.30;100.00;102120.28;10423802;28;20140;-84
2023/07/17 22:57:22;;;;;;;0.00;0.00;;;;;;;20.83;100.00;102128.06;10425138;28;20058;-84
2023/07/17 23:02:24;;;;;;;0.00;0.00;;;;;;;21.11;100.00;102127.25;10423404;28;20458;-84
2023/07/17 23:07:25;;;;;;;0.00;0.00;;;;;;;20.99;100.00;102134.25;10434600;28;20131;-84